Time;durP1;ratioP1;P1;durP2;ratioP2;P2;SDS_P1;SDS_P2;PMS_P1;PMS_P2;Temp;Humidity;BMP_temperature;BMP_pressure;BME280_temperature;BME280_humidity;BME280_pressure;Samples;Min_cycle;Max_cycle;Signal;HPM_P1;HPM_P2
2021/11/23 00:00:27;;;;;;;42.30;26.40;;;;;;;1.38;85.97;101114.35;86943;1302;80871;-62
2021/11/23 00:02:47;;;;;;;39.00;25.10;;;;;;;1.40;85.95;101111.58;86964;1299;83085;-70
2021/11/23 00:04:55;;;;;;;40.70;25.80;;;;;;;1.41;85.88;101109.35;86964;1294;96962;-70
2021/11/23 00:07:01;;;;;;;41.50;26.30;;;;;;;1.45;86.04;101107.98;86968;1295;86353;-71
2021/11/23 00:09:10;;;;;;;42.10;24.50;;;;;;;1.51;85.96;101097.43;86979;1298;94763;-70
2021/11/23 00:11:16;;;;;;;40.10;25.60;;;;;;;1.55;85.98;101093.91;86991;1299;78828;-72
2021/11/23 00:13:25;;;;;;;41.70;24.20;;;;;;;1.55;85.97;101096.04;86993;1299;83923;-62
2021/11/23 00:15:34;;;;;;;39.40;24.20;;;;;;;1.51;85.95;101100.73;86898;1301;99840;-62
2021/11/23 00:17:43;;;;;;;41.80;27.20;;;;;;;1.48;85.76;101100.60;86965;1298;87963;-62
2021/11/23 00:19:49;;;;;;;36.60;23.60;;;;;;;1.43;85.73;101103.54;86945;1304;95752;-62
2021/11/23 00:21:55;;;;;;;40.80;25.60;;;;;;;1.35;85.69;101105.14;86944;1302;77340;-62
2021/11/23 00:24:05;;;;;;;43.00;26.00;;;;;;;1.24;85.65;101112.40;86985;1295;80681;-61
2021/11/23 00:26:14;;;;;;;39.30;24.10;;;;;;;1.16;85.46;101111.02;86901;1299;100055;-61
2021/11/23 00:28:23;;;;;;;41.30;24.70;;;;;;;1.09;85.42;101110.80;87052;1299;88200;-62
2021/11/23 00:30:30;;;;;;;39.50;25.00;;;;;;;1.04;85.58;101115.61;86969;1298;94391;-61
2021/11/23 00:32:39;;;;;;;42.50;25.00;;;;;;;1.07;85.76;101118.94;86994;1298;79112;-69
2021/11/23 00:34:48;;;;;;;37.40;24.20;;;;;;;1.13;85.85;101120.84;86972;1298;82423;-69
2021/11/23 00:36:59;;;;;;;35.20;23.20;;;;;;;1.12;85.94;101124.95;86942;1299;99691;-70
2021/11/23 00:39:08;;;;;;;35.90;23.50;;;;;;;1.15;85.99;101129.36;86865;1304;88474;-69
2021/11/23 00:41:19;;;;;;;38.60;23.30;;;;;;;1.15;85.96;101135.34;86960;1298;95546;-68
2021/11/23 00:43:25;;;;;;;35.50;22.90;;;;;;;1.15;86.00;101135.73;86959;1299;78786;-62
2021/11/23 00:45:32;;;;;;;38.90;25.20;;;;;;;1.21;86.14;101139.22;86987;1299;80605;-62
2021/11/23 00:47:38;;;;;;;37.50;24.60;;;;;;;1.29;86.06;101138.11;86972;1295;98289;-69
2021/11/23 00:49:44;;;;;;;39.30;25.20;;;;;;;1.35;86.12;101136.23;87005;1298;89079;-69
2021/11/23 00:51:51;;;;;;;36.10;23.50;;;;;;;1.38;86.13;101129.79;86981;1298;95163;-69
2021/11/23 00:54:00;;;;;;;36.10;24.10;;;;;;;1.40;85.97;101122.92;86963;1299;80537;-70
2021/11/23 00:56:07;;;;;;;38.00;23.40;;;;;;;1.40;86.14;101127.83;86977;1299;83387;-69
2021/11/23 00:58:14;;;;;;;39.20;23.60;;;;;;;1.41;86.08;101125.28;86954;1299;97978;-69
2021/11/23 01:00:24;;;;;;;41.30;23.70;;;;;;;1.47;86.17;101122.93;86966;1298;89194;-68
2021/11/23 01:02:30;;;;;;;39.70;24.00;;;;;;;1.52;86.33;101120.73;86968;1298;95873;-62
2021/11/23 01:04:36;;;;;;;41.60;24.90;;;;;;;1.56;86.38;101121.33;86911;1298;78283;-62
2021/11/23 01:06:42;;;;;;;45.00;24.40;;;;;;;1.63;86.33;101114.23;86984;1296;82275;-68
2021/11/23 01:08:49;;;;;;;43.90;25.60;;;;;;;1.69;86.28;101115.02;87010;1296;97221;-71
2021/11/23 01:10:56;;;;;;;49.80;25.20;;;;;;;1.76;86.42;101107.02;86882;1299;89604;-70
2021/11/23 01:13:02;;;;;;;47.50;25.70;;;;;;;1.87;86.33;101098.76;87002;1298;95421;-70
2021/11/23 01:15:13;;;;;;;48.30;25.80;;;;;;;1.91;86.33;101099.48;86983;1299;79624;-69
2021/11/23 01:17:19;;;;;;;50.80;27.50;;;;;;;1.94;86.41;101097.70;86984;1305;82887;-61
2021/11/23 01:19:26;;;;;;;51.80;28.70;;;;;;;1.92;86.23;101097.11;87002;1298;98760;-62
2021/11/23 01:21:33;;;;;;;55.60;30.60;;;;;;;1.91;86.34;101092.60;86981;1299;87825;-61
2021/11/23 01:23:43;;;;;;;53.80;30.00;;;;;;;1.91;86.14;101088.31;86976;1299;95248;-61
2021/11/23 01:25:49;;;;;;;54.50;29.30;;;;;;;1.87;86.14;101085.27;86962;1299;79003;-61
2021/11/23 01:27:56;;;;;;;52.60;28.40;;;;;;;1.86;86.15;101086.79;86960;1298;80059;-61
2021/11/23 01:30:02;;;;;;;55.10;29.50;;;;;;;1.84;86.34;101089.02;86980;1298;100103;-62
2021/11/23 01:32:11;;;;;;;52.10;28.80;;;;;;;1.87;86.36;101087.57;86984;1294;86398;-71
2021/11/23 01:34:19;;;;;;;48.20;28.00;;;;;;;1.91;86.23;101084.23;86991;1299;94666;-70
2021/11/23 01:36:26;;;;;;;58.00;30.10;;;;;;;1.96;86.23;101083.30;86976;1302;81854;-71
2021/11/23 01:38:34;;;;;;;48.10;27.80;;;;;;;1.92;86.35;101087.50;86968;1299;83386;-64
2021/11/23 01:40:45;;;;;;;56.00;29.40;;;;;;;1.96;86.49;101085.10;86959;1293;96747;-61
2021/11/23 01:42:54;;;;;;;49.60;28.70;;;;;;;2.01;86.27;101088.46;87014;1294;86944;-62
2021/11/23 01:45:01;;;;;;;58.50;31.50;;;;;;;1.97;86.58;101087.36;86934;1302;94627;-61
2021/11/23 01:47:09;;;;;;;53.20;31.70;;;;;;;2.01;86.41;101092.84;86934;1298;78111;-62
2021/11/23 01:49:18;;;;;;;54.00;31.10;;;;;;;2.05;86.39;101097.90;87084;1294;79720;-64
2021/11/23 01:51:28;;;;;;;50.70;29.60;;;;;;;2.06;86.28;101096.23;86952;1297;98101;-62
2021/11/23 01:53:37;;;;;;;53.60;30.60;;;;;;;2.01;86.19;101093.98;86970;1298;87630;-62
2021/11/23 01:55:44;;;;;;;51.90;28.80;;;;;;;1.99;86.25;101100.80;86979;1298;94352;-61
2021/11/23 01:57:50;;;;;;;45.20;26.40;;;;;;;1.98;86.42;101105.02;86969;1301;78825;-61
2021/11/23 02:00:00;;;;;;;45.50;25.50;;;;;;;2.01;86.28;101105.67;86973;1299;81240;-61
2021/11/23 02:02:09;;;;;;;45.10;25.20;;;;;;;2.02;86.06;101112.54;86994;1298;99260;-61
2021/11/23 02:04:18;;;;;;;45.50;24.60;;;;;;;2.01;86.22;101118.13;86963;1298;88024;-61
2021/11/23 02:06:25;;;;;;;44.60;24.70;;;;;;;2.06;86.24;101123.93;86826;1301;95636;-62
2021/11/23 02:08:34;;;;;;;40.50;24.90;;;;;;;2.08;86.04;101130.70;86983;1304;76925;-62
2021/11/23 02:10:41;;;;;;;47.90;27.90;;;;;;;2.05;86.18;101127.77;86983;1293;79797;-62
2021/11/23 02:12:48;;;;;;;46.60;27.40;;;;;;;2.03;86.18;101126.08;86980;1301;99870;-62
2021/11/23 02:14:58;;;;;;;44.30;26.30;;;;;;;2.02;86.25;101120.85;86871;1296;87200;-61
2021/11/23 02:17:07;;;;;;;35.30;24.10;;;;;;;2.04;86.15;101117.88;86963;1299;95870;-62
2021/11/23 02:19:13;;;;;;;35.30;23.80;;;;;;;1.99;86.14;101122.88;86970;1298;79134;-61
2021/11/23 02:21:22;;;;;;;37.00;21.90;;;;;;;1.98;86.11;101132.20;87009;1298;81961;-61
2021/11/23 02:23:28;;;;;;;33.80;21.50;;;;;;;1.97;85.93;101124.28;86974;1298;100489;-69
2021/11/23 02:25:35;;;;;;;33.60;21.30;;;;;;;1.97;86.07;101130.31;87002;1294;86104;-69
2021/11/23 02:27:44;;;;;;;34.00;20.80;;;;;;;1.97;85.97;101130.82;86923;1299;95415;-62
2021/11/23 02:29:53;;;;;;;32.70;19.90;;;;;;;2.01;86.11;101135.50;86929;1298;81286;-61
2021/11/23 02:31:59;;;;;;;33.70;19.70;;;;;;;2.02;86.00;101138.60;86976;1304;81949;-62
2021/11/23 02:34:07;;;;;;;34.30;20.60;;;;;;;2.01;85.96;101131.91;86990;1303;99839;-62
2021/11/23 02:36:14;;;;;;;33.70;19.90;;;;;;;2.04;86.12;101138.13;86998;1298;89101;-61
2021/11/23 02:38:25;;;;;;;33.50;22.30;;;;;;;2.08;86.01;101140.97;86990;1299;93932;-61
2021/11/23 02:40:31;;;;;;;31.90;20.20;;;;;;;2.12;85.94;101138.58;86981;1300;79938;-61
2021/11/23 02:42:38;;;;;;;31.80;20.30;;;;;;;2.09;86.06;101133.46;86979;1298;83073;-62
2021/11/23 02:44:44;;;;;;;34.20;20.90;;;;;;;2.05;85.94;101129.48;86977;1298;99953;-61
2021/11/23 02:46:51;;;;;;;30.20;19.00;;;;;;;2.04;85.97;101124.83;86978;1298;87752;-62
2021/11/23 02:48:57;;;;;;;29.70;18.80;;;;;;;2.03;85.95;101120.83;86984;1299;94690;-62
2021/11/23 02:51:07;;;;;;;29.00;17.40;;;;;;;2.02;85.90;101114.45;86973;1298;80732;-60
2021/11/23 02:53:13;;;;;;;26.30;17.40;;;;;;;1.98;85.96;101114.76;86904;1298;80737;-69
2021/11/23 02:55:24;;;;;;;29.40;17.20;;;;;;;1.99;85.96;101118.29;86961;1299;98328;-68
2021/11/23 02:57:33;;;;;;;27.20;16.80;;;;;;;2.04;86.05;101119.60;86978;1297;88804;-61
2021/11/23 02:59:39;;;;;;;27.60;16.10;;;;;;;2.07;86.01;101118.88;86999;1299;95296;-61
2021/11/23 03:01:46;;;;;;;26.10;15.90;;;;;;;2.07;86.15;101115.30;86972;1299;80043;-63
2021/11/23 03:03:56;;;;;;;27.20;17.60;;;;;;;2.11;86.19;101113.27;87016;1299;81635;-62
2021/11/23 03:06:02;;;;;;;29.30;18.90;;;;;;;2.17;86.05;101108.99;86934;1298;99582;-61
2021/11/23 03:08:08;;;;;;;29.20;19.30;;;;;;;2.19;86.06;101107.09;87009;1298;89063;-61
2021/11/23 03:10:21;;;;;;;32.20;20.20;;;;;;;2.16;86.21;101106.29;87015;1299;94063;-61
2021/11/23 03:12:28;;;;;;;29.20;20.30;;;;;;;2.18;86.15;101104.66;87023;1294;77517;-61
2021/11/23 03:14:36;;;;;;;26.70;18.40;;;;;;;2.20;86.00;101100.58;86981;1296;81951;-62
2021/11/23 03:16:42;;;;;;;27.90;18.00;;;;;;;2.19;86.19;101100.32;86996;1304;99809;-69
2021/11/23 03:18:48;;;;;;;26.80;17.10;;;;;;;2.19;86.06;101096.23;87001;1300;85923;-71
2021/11/23 03:20:54;;;;;;;27.20;17.50;;;;;;;2.20;86.01;101088.34;86975;1301;95790;-70
2021/11/23 03:23:01;;;;;;;28.50;16.10;;;;;;;2.23;85.96;101085.77;87004;1298;78671;-61
2021/11/23 03:25:10;;;;;;;26.60;15.80;;;;;;;2.26;86.07;101083.80;86962;1298;79627;-60
2021/11/23 03:27:17;;;;;;;24.80;15.80;;;;;;;2.27;86.06;101080.15;87049;1302;99619;-69
2021/11/23 03:29:27;;;;;;;21.20;15.10;;;;;;;2.26;86.00;101074.69;87070;1299;89360;-69
2021/11/23 03:31:33;;;;;;;22.60;15.90;;;;;;;2.29;85.93;101075.16;87087;1302;94082;-69
2021/11/23 03:33:39;;;;;;;23.20;15.60;;;;;;;2.34;85.95;101075.52;87087;1298;78602;-69
2021/11/23 03:35:46;;;;;;;24.70;15.80;;;;;;;2.31;86.07;101077.50;87068;1298;81126;-69
2021/11/23 03:37:54;;;;;;;23.20;16.30;;;;;;;2.27;86.09;101081.23;87067;1299;100301;-61
2021/11/23 03:40:06;;;;;;;24.60;16.00;;;;;;;2.26;85.77;101079.17;87103;1299;88077;-61
2021/11/23 03:42:15;;;;;;;21.20;14.70;;;;;;;2.26;85.89;101084.30;87094;1299;94620;-61
2021/11/23 03:44:25;;;;;;;23.70;15.40;;;;;;;2.26;85.89;101081.64;86957;1299;82145;-61
2021/11/23 03:46:35;;;;;;;20.90;14.00;;;;;;;2.27;85.80;101076.97;87007;1295;80638;-61
2021/11/23 03:48:40;;;;;;;21.30;13.80;;;;;;;2.25;85.73;101070.19;87123;1302;99991;-61
2021/11/23 03:50:47;;;;;;;19.40;13.50;;;;;;;2.25;85.88;101066.13;87086;1298;89245;-60
2021/11/23 03:52:57;;;;;;;20.90;12.90;;;;;;;2.26;85.86;101062.98;87075;1293;93652;-69
2021/11/23 03:55:06;;;;;;;21.60;13.50;;;;;;;2.23;85.95;101065.73;87079;1302;77267;-69
2021/11/23 03:57:12;;;;;;;19.40;13.50;;;;;;;2.29;85.89;101062.59;87145;1293;79517;-69
2021/11/23 03:59:21;;;;;;;22.70;14.80;;;;;;;2.31;85.80;101055.81;87110;1302;99158;-68
2021/11/23 04:01:28;;;;;;;21.60;15.90;;;;;;;2.32;85.65;101058.57;87074;1301;88908;-68
2021/11/23 04:03:34;;;;;;;24.00;15.20;;;;;;;2.32;85.75;101056.48;87067;1302;95334;-70
2021/11/23 04:05:43;;;;;;;21.70;14.20;;;;;;;2.29;85.71;101054.02;87053;1299;79585;-68
2021/11/23 04:07:49;;;;;;;23.50;15.10;;;;;;;2.28;85.73;101044.70;87104;1299;82732;-61
2021/11/23 04:09:55;;;;;;;23.60;14.80;;;;;;;2.27;85.55;101038.22;87092;1302;100125;-62
2021/11/23 04:12:01;;;;;;;22.00;15.60;;;;;;;2.22;85.52;101034.37;87103;1302;88235;-62
2021/11/23 04:14:10;;;;;;;21.10;14.60;;;;;;;2.20;85.60;101030.59;87097;1302;94017;-62
2021/11/23 04:16:18;;;;;;;21.30;14.20;;;;;;;2.20;85.66;101030.75;87088;1302;81324;-69
2021/11/23 04:18:27;;;;;;;21.00;13.90;;;;;;;2.18;85.66;101033.05;87093;1299;80855;-69
2021/11/23 04:20:37;;;;;;;21.80;13.30;;;;;;;2.18;85.71;101027.77;87097;1301;99568;-68
2021/11/23 04:22:47;;;;;;;19.40;14.60;;;;;;;2.23;85.58;101030.73;87098;1302;87125;-63
2021/11/23 04:24:56;;;;;;;23.00;16.00;;;;;;;2.23;85.49;101034.30;87063;1299;93249;-62
2021/11/23 04:27:07;;;;;;;21.10;14.90;;;;;;;2.23;85.60;101033.20;87033;1297;77239;-61
2021/11/23 04:29:13;;;;;;;21.60;14.70;;;;;;;2.20;85.46;101031.86;86918;1304;82568;-62
2021/11/23 04:31:20;;;;;;;22.40;15.10;;;;;;;2.17;85.35;101023.91;87092;1299;99003;-63
2021/11/23 04:33:26;;;;;;;22.40;14.40;;;;;;;2.13;85.60;101023.92;87133;1302;87895;-61
2021/11/23 04:35:32;;;;;;;22.20;15.40;;;;;;;2.07;85.26;101028.24;87075;1297;94743;-61
2021/11/23 04:37:42;;;;;;;18.80;13.50;;;;;;;2.03;85.66;101033.72;87065;1298;79378;-69
2021/11/23 04:39:49;;;;;;;20.80;14.10;;;;;;;2.04;85.64;101033.34;87071;1302;80346;-69
2021/11/23 04:41:58;;;;;;;22.20;14.60;;;;;;;2.07;85.63;101032.20;87060;1305;99641;-61
2021/11/23 04:44:05;;;;;;;17.40;12.70;;;;;;;2.12;85.67;101026.95;87090;1302;88032;-62
2021/11/23 04:46:12;;;;;;;16.80;12.80;;;;;;;2.17;85.74;101024.66;87069;1301;94923;-62
2021/11/23 04:48:21;;;;;;;17.40;12.30;;;;;;;2.18;85.65;101019.56;87088;1298;81566;-61
2021/11/23 04:50:31;;;;;;;17.20;12.60;;;;;;;2.23;85.71;101020.02;87102;1302;80580;-61
2021/11/23 04:52:38;;;;;;;16.40;11.70;;;;;;;2.26;85.64;101023.58;87073;1294;99022;-61
2021/11/23 04:54:44;;;;;;;19.50;12.20;;;;;;;2.22;85.60;101028.45;87093;1303;87997;-61
2021/11/23 04:56:53;;;;;;;21.70;13.60;;;;;;;2.21;85.64;101023.80;87079;1299;94023;-62
2021/11/23 04:59:00;;;;;;;17.20;12.30;;;;;;;2.19;85.58;101029.42;87063;1299;78124;-62
2021/11/23 05:01:09;;;;;;;17.80;12.40;;;;;;;2.19;85.51;101028.40;87111;1298;80887;-62
2021/11/23 05:03:19;;;;;;;15.50;11.30;;;;;;;2.16;85.45;101026.10;87052;1298;99606;-68
2021/11/23 05:05:26;;;;;;;18.20;11.10;;;;;;;2.13;85.54;101017.83;87086;1301;89119;-67
2021/11/23 05:07:32;;;;;;;13.50;10.00;;;;;;;2.09;85.70;101014.77;87109;1298;95765;-60
2021/11/23 05:09:38;;;;;;;14.70;10.10;;;;;;;2.11;85.40;101007.88;86930;1299;78138;-61
2021/11/23 05:11:48;;;;;;;16.60;9.50;;;;;;;2.11;85.45;101006.31;86959;1301;82198;-64
2021/11/23 05:13:58;;;;;;;14.00;8.60;;;;;;;2.12;85.68;101002.30;86986;1304;99721;-63
2021/11/23 05:16:05;;;;;;;13.30;9.20;;;;;;;2.15;85.59;100999.01;87055;1299;89234;-61
2021/11/23 05:18:15;;;;;;;11.90;8.90;;;;;;;2.19;85.45;100998.33;87079;1299;95143;-63
2021/11/23 05:20:24;;;;;;;11.90;8.60;;;;;;;2.20;85.40;100992.73;87065;1302;78035;-61
2021/11/23 05:22:30;;;;;;;13.70;8.30;;;;;;;2.14;85.52;100988.04;87070;1302;80833;-68
2021/11/23 05:24:37;;;;;;;11.90;8.10;;;;;;;2.15;85.50;100979.10;87064;1298;98072;-68
2021/11/23 05:26:43;;;;;;;11.90;7.90;;;;;;;2.15;85.38;100977.55;87076;1302;89475;-67
2021/11/23 05:28:49;;;;;;;9.90;7.40;;;;;;;2.10;85.48;100978.79;87082;1300;93984;-68
2021/11/23 05:30:56;;;;;;;11.40;7.40;;;;;;;2.06;85.33;100976.45;86997;1294;79139;-68
2021/11/23 05:33:02;;;;;;;10.10;7.40;;;;;;;2.01;85.16;100971.52;87059;1302;82944;-62
2021/11/23 05:35:13;;;;;;;9.70;6.80;;;;;;;2.00;85.14;100972.38;87094;1302;99794;-62
2021/11/23 05:37:19;;;;;;;10.50;6.70;;;;;;;1.98;85.33;100976.39;87098;1302;88720;-62
2021/11/23 05:39:26;;;;;;;10.80;6.50;;;;;;;1.95;85.14;100972.55;87048;1302;95958;-62
2021/11/23 05:41:32;;;;;;;10.50;6.70;;;;;;;1.96;85.11;100975.70;87087;1298;79159;-62
2021/11/23 05:43:38;;;;;;;10.30;6.70;;;;;;;1.99;85.22;100977.73;87098;1302;81734;-62
2021/11/23 05:45:46;;;;;;;8.70;6.60;;;;;;;2.01;85.06;100974.60;87101;1298;98475;-62
2021/11/23 05:47:52;;;;;;;9.10;6.60;;;;;;;2.07;85.17;100970.52;87151;1302;86921;-69
2021/11/23 05:49:59;;;;;;;8.10;6.30;;;;;;;2.10;85.01;100969.77;87136;1299;93682;-68
2021/11/23 05:52:07;;;;;;;9.50;6.70;;;;;;;2.06;84.77;100965.97;87094;1302;78969;-62
2021/11/23 05:54:13;;;;;;;9.30;6.40;;;;;;;2.03;84.71;100971.05;87133;1295;80198;-63
2021/11/23 05:56:19;;;;;;;11.80;7.10;;;;;;;1.97;84.69;100979.85;87081;1298;98885;-62
2021/11/23 05:58:26;;;;;;;8.40;6.70;;;;;;;1.96;84.70;100983.48;87082;1298;88669;-67
2021/11/23 06:00:35;;;;;;;9.20;6.30;;;;;;;1.98;84.84;100975.38;87093;1302;94303;-67
2021/11/23 06:02:44;;;;;;;8.90;6.30;;;;;;;1.99;84.84;100982.34;87048;1300;79663;-62
2021/11/23 06:04:51;;;;;;;7.30;5.50;;;;;;;2.02;84.80;100980.74;87098;1298;83482;-62
2021/11/23 06:06:57;;;;;;;7.70;5.60;;;;;;;2.02;84.66;100975.91;87067;1286;97700;-62
2021/11/23 06:09:05;;;;;;;9.50;5.80;;;;;;;2.03;84.91;100975.33;87078;1301;89851;-62
2021/11/23 06:11:11;;;;;;;8.50;5.40;;;;;;;2.06;84.96;100976.32;87053;1299;95180;-62
2021/11/23 06:13:17;;;;;;;9.20;5.40;;;;;;;2.12;84.92;100975.98;84621;1300;3279939;-60
2021/11/23 06:15:24;;;;;;;8.00;5.20;;;;;;;2.17;84.85;100976.51;87087;1302;80633;-62
2021/11/23 06:17:30;;;;;;;8.20;5.60;;;;;;;2.18;84.65;100976.02;87078;1302;99028;-67
2021/11/23 06:19:37;;;;;;;210.00;115.40;;;;;;;2.19;84.64;100975.56;87087;1302;86903;-68
2021/11/23 06:21:45;;;;;;;19.80;12.90;;;;;;;2.21;84.83;100977.55;86881;1304;95782;-62
2021/11/23 06:23:51;;;;;;;10.50;5.80;;;;;;;2.21;84.65;100967.25;87074;1302;79256;-61
2021/11/23 06:26:00;;;;;;;7.50;5.30;;;;;;;2.16;84.31;100966.65;87091;1301;82495;-62
2021/11/23 06:28:07;;;;;;;9.80;5.20;;;;;;;2.09;84.61;100964.83;87098;1297;100202;-67
2021/11/23 06:30:13;;;;;;;8.90;5.20;;;;;;;2.07;84.43;100962.58;87072;1298;87186;-67
2021/11/23 06:32:22;;;;;;;7.70;5.00;;;;;;;2.06;84.38;100957.16;87099;1298;94341;-63
2021/11/23 06:34:31;;;;;;;8.30;5.00;;;;;;;2.06;84.53;100954.44;87068;1302;80263;-61
2021/11/23 06:36:38;;;;;;;9.60;5.90;;;;;;;2.08;84.55;100947.69;87073;1298;82667;-61
2021/11/23 06:38:50;;;;;;;8.20;4.60;;;;;;;2.08;84.63;100945.56;87080;1301;97965;-63
2021/11/23 06:40:59;;;;;;;7.00;4.90;;;;;;;2.12;84.49;100938.64;87074;1302;87233;-61
2021/11/23 06:43:05;;;;;;;8.40;5.20;;;;;;;2.17;84.44;100937.74;87067;1302;96100;-68
2021/11/23 06:45:14;;;;;;;8.10;4.40;;;;;;;2.20;84.47;100938.36;87064;1294;78427;-68
2021/11/23 06:47:21;;;;;;;8.80;4.90;;;;;;;2.21;84.43;100937.38;87087;1302;79480;-61
2021/11/23 06:49:30;;;;;;;8.50;5.00;;;;;;;2.22;84.46;100936.63;87078;1298;98459;-62
2021/11/23 06:51:40;;;;;;;8.10;4.80;;;;;;;2.21;84.28;100925.85;87076;1302;87321;-62
2021/11/23 06:53:50;;;;;;;8.40;4.40;;;;;;;2.18;84.35;100929.86;87039;1301;95509;-68
2021/11/23 06:55:56;;;;;;;7.50;4.40;;;;;;;2.19;84.13;100929.26;87069;1299;79084;-68
2021/11/23 06:58:03;;;;;;;7.10;3.90;;;;;;;2.21;84.34;100927.97;87060;1302;80910;-62
2021/11/23 07:00:13;;;;;;;6.80;3.90;;;;;;;2.24;84.17;100920.64;87069;1299;99452;-63
2021/11/23 07:02:19;;;;;;;7.20;5.30;;;;;;;2.26;84.03;100919.42;87112;1302;88727;-67
2021/11/23 07:04:25;;;;;;;6.50;4.30;;;;;;;2.27;84.04;100913.46;87112;1300;93658;-67
2021/11/23 07:06:31;;;;;;;5.00;3.30;;;;;;;2.31;84.29;100915.80;87067;1301;80783;-67
2021/11/23 07:08:37;;;;;;;6.30;3.30;;;;;;;2.37;84.19;100914.04;87092;1299;80520;-68
2021/11/23 07:10:43;;;;;;;6.20;3.50;;;;;;;2.43;84.19;100908.98;87061;1297;99629;-69
2021/11/23 07:12:49;;;;;;;6.10;3.80;;;;;;;2.46;83.89;100911.95;87072;1302;88602;-69
2021/11/23 07:14:55;;;;;;;5.70;3.70;;;;;;;2.44;83.89;100907.67;87036;1293;92349;-68
2021/11/23 07:17:01;;;;;;;7.80;3.80;;;;;;;2.43;83.91;100905.58;87058;1301;79878;-69
2021/11/23 07:19:10;;;;;;;7.20;3.90;;;;;;;2.40;83.77;100902.81;87075;1298;84000;-68
2021/11/23 07:21:16;;;;;;;8.10;4.00;;;;;;;2.37;83.81;100899.66;87067;1297;96646;-67
2021/11/23 07:23:26;;;;;;;7.60;3.30;;;;;;;2.37;83.76;100892.05;87120;1299;88906;-61
2021/11/23 07:25:32;;;;;;;5.90;3.60;;;;;;;2.37;83.66;100892.20;87095;1299;95313;-61
2021/11/23 07:27:42;;;;;;;7.20;3.80;;;;;;;2.41;83.62;100891.39;87077;1302;79617;-61
2021/11/23 07:29:49;;;;;;;5.60;2.90;;;;;;;2.46;83.97;100888.67;87061;1301;81455;-62
2021/11/23 07:31:55;;;;;;;6.80;3.10;;;;;;;2.51;83.91;100889.14;87042;1302;100115;-67
2021/11/23 07:34:01;;;;;;;4.80;2.90;;;;;;;2.57;84.04;100880.98;87072;1298;87890;-67
2021/11/23 07:36:08;;;;;;;7.00;3.90;;;;;;;2.62;84.02;100883.68;87022;1302;93656;-67
2021/11/23 07:38:14;;;;;;;5.40;3.10;;;;;;;2.67;83.75;100879.02;87153;1297;76220;-61
2021/11/23 07:40:21;;;;;;;6.20;3.50;;;;;;;2.71;83.84;100875.17;87024;1298;82142;-65
2021/11/23 07:42:27;;;;;;;9.10;4.00;;;;;;;2.73;83.73;100871.41;87070;1298;99233;-67
2021/11/23 07:44:36;;;;;;;4.90;3.10;;;;;;;2.75;83.81;100868.43;87079;1298;87234;-68
2021/11/23 07:46:43;;;;;;;6.10;3.70;;;;;;;2.72;83.52;100872.60;87061;1298;95831;-63
2021/11/23 07:48:49;;;;;;;6.60;3.40;;;;;;;2.66;83.63;100874.34;87072;1298;78979;-61
2021/11/23 07:50:58;;;;;;;5.60;3.20;;;;;;;2.66;83.71;100876.48;87063;1300;79728;-61
2021/11/23 07:53:05;;;;;;;5.70;3.30;;;;;;;2.64;83.60;100879.46;87079;1297;99043;-61
2021/11/23 07:55:14;;;;;;;6.60;3.40;;;;;;;2.65;83.97;100883.10;87089;1297;87450;-62
2021/11/23 07:57:23;;;;;;;4.00;2.90;;;;;;;2.68;84.00;100883.95;87057;1294;95070;-60
2021/11/23 07:59:30;;;;;;;7.30;3.60;;;;;;;2.74;84.02;100889.83;86978;1299;79608;-60
2021/11/23 08:01:39;;;;;;;10.90;4.90;;;;;;;2.82;84.12;100892.36;87063;1298;80291;-60
2021/11/23 08:03:45;;;;;;;6.60;3.60;;;;;;;2.90;84.20;100892.70;87052;1299;99821;-67
2021/11/23 08:05:54;;;;;;;6.90;4.00;;;;;;;2.98;84.02;100891.86;87103;1302;87985;-67
2021/11/23 08:08:01;;;;;;;6.90;4.10;;;;;;;3.04;84.08;100902.77;87049;1298;93936;-61
2021/11/23 08:10:09;;;;;;;7.50;4.10;;;;;;;3.03;84.07;100905.20;87076;1302;77053;-60
2021/11/23 08:12:15;;;;;;;7.40;4.70;;;;;;;3.02;83.81;100910.99;87077;1298;82821;-74
2021/11/23 08:14:23;;;;;;;8.80;6.60;;;;;;;2.98;83.98;100914.96;86857;1302;99696;-72
2021/11/23 08:16:30;;;;;;;8.90;4.50;;;;;;;2.97;84.05;100914.91;87123;1302;88801;-76
2021/11/23 08:18:36;;;;;;;9.30;5.20;;;;;;;2.92;84.05;100918.32;87120;1302;94074;-60
2021/11/23 08:20:44;;;;;;;7.90;4.00;;;;;;;2.92;84.05;100919.29;87058;1295;80566;-61
2021/11/23 08:22:51;;;;;;;6.30;3.90;;;;;;;2.87;84.22;100920.38;87089;1299;83117;-78
2021/11/23 08:24:58;;;;;;;9.50;4.30;;;;;;;2.87;83.92;100920.03;87085;1293;98974;-79
2021/11/23 08:27:05;;;;;;;6.90;3.90;;;;;;;2.88;84.09;100926.65;87081;1299;88648;-62
2021/11/23 08:29:14;;;;;;;6.50;3.90;;;;;;;2.94;84.10;100920.17;87029;1299;95650;-61
2021/11/23 08:31:20;;;;;;;9.90;4.40;;;;;;;3.01;84.14;100917.29;87059;1299;79711;-61
2021/11/23 08:33:26;;;;;;;7.80;4.00;;;;;;;3.04;84.21;100915.07;87081;1299;82312;-75
2021/11/23 08:36:08;;;;;;;9.70;5.10;;;;;;;3.09;84.27;100913.98;87100;1298;97528;-75
2021/11/23 08:38:15;;;;;;;7.50;4.60;;;;;;;3.12;84.34;100913.50;87043;1298;88325;-73
2021/11/23 08:40:20;;;;;;;7.30;4.80;;;;;;;3.13;84.23;100911.43;87072;1302;93521;-66
2021/11/23 08:42:28;;;;;;;8.50;4.70;;;;;;;3.11;84.21;100911.45;87054;1298;77436;-76
2021/11/23 08:44:34;;;;;;;10.50;4.80;;;;;;;3.13;84.30;100910.60;87073;1300;79777;-76
2021/11/23 08:46:40;;;;;;;9.40;4.90;;;;;;;3.13;84.25;100908.77;87088;1297;98636;-74
2021/11/23 08:48:46;;;;;;;7.90;4.30;;;;;;;3.17;84.31;100909.12;87033;1299;88683;-60
2021/11/23 08:50:55;;;;;;;9.30;5.50;;;;;;;3.18;84.46;100910.08;87064;1295;95413;-62
2021/11/23 08:53:07;;;;;;;9.20;5.00;;;;;;;3.22;84.39;100916.16;87047;1299;80302;-77
2021/11/23 08:55:17;;;;;;;9.20;5.10;;;;;;;3.28;84.51;100913.36;87035;1299;83522;-76
2021/11/23 08:57:25;;;;;;;7.40;4.90;;;;;;;3.32;84.40;100905.70;87116;1299;99078;-73
2021/11/23 08:59:41;;;;;;;7.30;5.10;;;;;;;3.31;84.38;100900.27;87055;1302;89496;-61
2021/11/23 09:01:48;;;;;;;8.60;5.60;;;;;;;3.39;84.53;100904.45;87011;1305;95230;-70
2021/11/23 09:04:02;;;;;;;9.00;5.70;;;;;;;3.46;84.60;100909.48;87042;1302;78206;-72
2021/11/23 09:06:09;;;;;;;11.00;6.40;;;;;;;3.56;84.46;100911.65;87069;1301;82429;-73
2021/11/23 09:08:21;;;;;;;9.20;5.30;;;;;;;3.60;84.44;100918.96;87105;1299;99530;-73
2021/11/23 09:10:29;;;;;;;8.70;5.80;;;;;;;3.56;84.64;100924.45;87074;1302;88720;-72
2021/11/23 09:12:38;;;;;;;10.50;5.90;;;;;;;3.57;84.36;100929.74;87108;1299;95189;-63
2021/11/23 09:14:45;;;;;;;10.30;5.80;;;;;;;3.56;84.33;100928.53;87069;1293;80441;-62
2021/11/23 09:16:51;;;;;;;9.50;5.70;;;;;;;3.57;84.36;100927.91;86877;1298;80574;-73
2021/11/23 09:19:01;;;;;;;8.40;5.50;;;;;;;3.57;84.23;100927.08;87047;1299;99950;-73
2021/11/23 09:21:08;;;;;;;7.40;5.20;;;;;;;3.52;84.13;100924.05;87058;1298;87528;-73
2021/11/23 09:23:14;;;;;;;8.90;4.80;;;;;;;3.54;84.23;100926.64;87040;1299;95035;-72
2021/11/23 09:25:20;;;;;;;8.80;5.60;;;;;;;3.58;84.33;100930.50;87046;1299;77504;-73
2021/11/23 09:27:27;;;;;;;9.20;5.80;;;;;;;3.61;84.24;100931.54;87086;1300;80039;-73
2021/11/23 09:29:33;;;;;;;8.00;5.30;;;;;;;3.61;84.28;100923.84;87102;1301;98616;-62
2021/11/23 09:31:43;;;;;;;7.40;5.00;;;;;;;3.59;84.25;100924.18;87052;1302;87607;-64
2021/11/23 09:33:50;;;;;;;8.30;6.00;;;;;;;3.63;84.37;100927.98;87043;1302;95526;-62
2021/11/23 09:36:00;;;;;;;10.40;6.50;;;;;;;3.64;84.19;100920.73;87055;1295;78546;-63
2021/11/23 09:38:07;;;;;;;23.40;7.50;;;;;;;3.60;84.23;100919.27;87047;1299;81729;-74
2021/11/23 09:40:13;;;;;;;7.90;5.20;;;;;;;3.58;84.23;100924.06;87064;1298;99105;-74
2021/11/23 09:42:23;;;;;;;8.50;4.80;;;;;;;3.59;84.18;100922.25;87064;1294;88094;-63
2021/11/23 09:44:33;;;;;;;8.20;5.20;;;;;;;3.64;84.18;100920.75;87020;1297;95182;-63
2021/11/23 09:46:43;;;;;;;8.00;5.20;;;;;;;3.67;84.27;100916.77;86977;1299;79507;-66
2021/11/23 09:48:53;;;;;;;8.20;5.40;;;;;;;3.71;84.19;100912.33;87084;1297;79981;-62
2021/11/23 09:51:03;;;;;;;7.30;4.80;;;;;;;3.70;84.16;100908.08;87096;1300;98734;-63
2021/11/23 09:53:10;;;;;;;8.00;5.50;;;;;;;3.68;84.07;100906.90;87017;1298;88250;-72